Terminal Aerodrome Forecast
Issued by NWS St Louis, MO

Home | Current Version | Previous Version | Graphics & Text | Print | Product List | Glossary On
Versions: 1 2 3 4 5 6 7 8 9 10 11 12 13 14 15 16 17 18 19 20 21 22 23 24 25 26 27 28 29 30 31 32
522
FTUS43 KLSX 170255 AAA
TAFSTL
TAF AMD
KSTL 170255Z 1703/1806 04006KT P6SM FEW150
     FM170700 10004KT P6SM SCT100
     FM171500 17008KT P6SM VCSH OVC035
     FM171800 20007KT P6SM OVC015
     FM172200 24008KT P6SM BKN040=

USA.gov is the U.S. government's official web portal to all federal, state and local government web resources and services.